»·PEaware :: N717TS KBLH-KPRC

N717TS :: KBLH-KPRC

FLIGHT INFORMATION

Flight Status: Arrived
Operator: Privately registered:
United States
More flights under this callsign
Pilot: Ty S. (2873)
Aircraft: Unknown
(DA62)
More flights by this aircraft type
Origin: KBLH Blythe
United States
Destination: KPRC Love
United States
More flights between these airports :: More routes between these airports
Route:
File this flight plan on PilotEdge
Remarks:
Altitude:
(Current/Filed)
0ft
Speed:
(Current/Filed)
0kts
Departed: 25-Mar-18 07:55 AM
Arrived: 25-Mar-18 08:43 AM
Distance/Time
Traveled:
129nm/0:47
Distance/Time
To Go:
Arrived

Flight Plot

Page will automatically refresh every two minutes.

Flight plan parsing failed; only flown route is shown


Map Options




Map Legend


Flown Route
Filed Route
Departure Airport
Arrival Airport
Navaid (VOR, NDB)
Fix

Horizontal Profiles

Position Reports

Time Latitude Longitude Heading Altitude Ground
Speed
25-Mar-18 07:48 33.614456 -114.712306 270 402ft 0kts
25-Mar-18 07:49 33.614456 -114.712306 270 402ft 0kts
25-Mar-18 07:50 33.614456 -114.712306 270 402ft 0kts
25-Mar-18 07:51 33.614883 -114.712758 310 402ft 6kts
25-Mar-18 07:52 33.614190 -114.715306 227 402ft 7kts
25-Mar-18 07:53 33.614135 -114.715739 269 402ft 7kts
25-Mar-18 07:54 33.625219 -114.716615 3 619ft 84kts
25-Mar-18 07:55 33.646467 -114.702873 53 1664ft 96kts
25-Mar-18 07:56 33.659880 -114.674575 57 2729ft 99kts
25-Mar-18 07:57 33.673204 -114.645285 56 3778ft 102kts
25-Mar-18 07:58 33.686948 -114.615079 55 4812ft 105kts
25-Mar-18 07:59 33.701202 -114.583739 55 5834ft 109kts
25-Mar-18 08:00 33.716018 -114.551134 54 6845ft 113kts
25-Mar-18 08:01 33.731402 -114.517251 54 7843ft 118kts
25-Mar-18 08:02 33.747436 -114.481899 55 8831ft 123kts
25-Mar-18 08:03 33.764832 -114.443667 56 9508ft 153kts
25-Mar-18 08:04 33.787605 -114.393184 57 9496ft 180kts
25-Mar-18 08:05 33.811366 -114.340483 58 9490ft 184kts
25-Mar-18 08:06 33.826527 -114.306854 58 9489ft 184kts
25-Mar-18 08:07 33.851013 -114.252497 58 9489ft 184kts
25-Mar-18 08:08 33.875355 -114.198380 57 9488ft 184kts
25-Mar-18 08:09 33.899777 -114.144003 57 9487ft 184kts
25-Mar-18 08:10 33.924121 -114.089715 57 9484ft 184kts
25-Mar-18 08:11 33.948426 -114.035435 57 9482ft 183kts
25-Mar-18 08:12 33.972541 -113.981502 57 9481ft 183kts
25-Mar-18 08:13 33.996711 -113.927367 57 9490ft 183kts
25-Mar-18 08:14 34.020807 -113.873295 57 9491ft 183kts
25-Mar-18 08:15 34.044959 -113.819020 57 9491ft 184kts
25-Mar-18 08:16 34.069148 -113.764591 57 9491ft 184kts
25-Mar-18 08:17 34.093204 -113.710374 57 9491ft 184kts
25-Mar-18 08:18 34.116934 -113.656803 57 9492ft 184kts
25-Mar-18 08:19 34.140918 -113.602571 57 9492ft 184kts
25-Mar-18 08:20 34.165037 -113.547948 57 9492ft 184kts
25-Mar-18 08:21 34.189160 -113.493198 57 9495ft 184kts
25-Mar-18 08:22 34.213083 -113.438816 56 9503ft 183kts
25-Mar-18 08:23 34.237181 -113.384798 65 9509ft 183kts
25-Mar-18 08:24 34.259172 -113.333986 65 9516ft 185kts
25-Mar-18 08:25 34.283199 -113.279005 64 9524ft 187kts
25-Mar-18 08:26 34.307615 -113.223241 64 9526ft 188kts
25-Mar-18 08:27 34.332067 -113.167263 64 9526ft 188kts
25-Mar-18 08:28 34.356489 -113.111250 64 9526ft 188kts
25-Mar-18 08:29 34.380977 -113.054996 64 9526ft 188kts
25-Mar-18 08:30 34.405381 -112.998862 64 9527ft 188kts
25-Mar-18 08:31 34.429805 -112.942557 64 9527ft 188kts
25-Mar-18 08:32 34.454020 -112.886527 64 9527ft 187kts
25-Mar-18 08:33 34.478202 -112.830607 65 9527ft 187kts
25-Mar-18 08:34 34.502362 -112.774644 65 9491ft 187kts
25-Mar-18 08:35 34.526453 -112.718748 65 9404ft 189kts
25-Mar-18 08:36 34.550104 -112.661406 68 8872ft 192kts
25-Mar-18 08:37 34.572215 -112.602382 66 8581ft 193kts
25-Mar-18 08:38 34.604441 -112.549726 50 8303ft 195kts
25-Mar-18 08:39 34.639834 -112.502472 50 7340ft 183kts
25-Mar-18 08:40 34.666313 -112.465477 68 6497ft 114kts
25-Mar-18 08:41 34.660459 -112.437555 143 5366ft 80kts
25-Mar-18 08:42 34.647047 -112.420987 135 5045ft 29kts
25-Mar-18 08:43 34.647511 -112.422794 317 5045ft 13kts
25-Mar-18 08:44 34.647333 -112.425015 151 5045ft 7kts
25-Mar-18 08:45 34.646560 -112.424575 39 5045ft 0kts
25-Mar-18 08:46 34.646560 -112.424575 39 5045ft 0kts
25-Mar-18 08:47 34.646560 -112.424575 39 5045ft 0kts
25-Mar-18 08:48 34.646560 -112.424575 39 5045ft 0kts
25-Mar-18 08:49 34.646560 -112.424575 39 5045ft 0kts
25-Mar-18 08:50 34.646560 -112.424575 39 5045ft 0kts
25-Mar-18 08:51 34.646560 -112.424575 39 5045ft 0kts
25-Mar-18 08:52 34.646560 -112.424575 39 5045ft 0kts

Navigation Log

Ident Type
Flight plan parsing failed, navigation log unavailable